sensor_id;sensor_type;location;lat;lon;timestamp;pressure;altitude;pressure_sealevel;temperature;humidity
60319;BME280;46163;52.306;5.634;2023-02-20T00:01:56;102328.50;;;15.81;57.35
60319;BME280;46163;52.306;5.634;2023-02-20T00:04:22;102320.63;;;15.80;57.17
60319;BME280;46163;52.306;5.634;2023-02-20T00:06:48;102318.97;;;15.79;57.27
60319;BME280;46163;52.306;5.634;2023-02-20T00:09:13;102307.63;;;15.77;57.06
60319;BME280;46163;52.306;5.634;2023-02-20T00:11:39;102314.84;;;15.76;57.24
60319;BME280;46163;52.306;5.634;2023-02-20T00:14:05;102304.31;;;15.75;57.31
60319;BME280;46163;52.306;5.634;2023-02-20T00:16:30;102295.44;;;15.74;56.98
60319;BME280;46163;52.306;5.634;2023-02-20T00:18:56;102297.47;;;15.72;57.13
60319;BME280;46163;52.306;5.634;2023-02-20T00:21:22;102296.63;;;15.72;57.07
60319;BME280;46163;52.306;5.634;2023-02-20T00:23:48;102288.78;;;15.70;57.19
60319;BME280;46163;52.306;5.634;2023-02-20T00:26:14;102287.16;;;15.69;57.01
60319;BME280;46163;52.306;5.634;2023-02-20T00:28:40;102287.16;;;15.69;57.14
60319;BME280;46163;52.306;5.634;2023-02-20T00:31:10;102286.53;;;15.67;57.00
60319;BME280;46163;52.306;5.634;2023-02-20T00:33:36;102272.47;;;15.65;56.81
60319;BME280;46163;52.306;5.634;2023-02-20T00:36:02;102275.16;;;15.65;57.07
60319;BME280;46163;52.306;5.634;2023-02-20T00:38:42;102279.72;;;15.65;56.76
60319;BME280;46163;52.306;5.634;2023-02-20T00:41:08;102282.56;;;15.63;56.88
60319;BME280;46163;52.306;5.634;2023-02-20T00:43:35;102274.50;;;15.63;56.94
60319;BME280;46163;52.306;5.634;2023-02-20T00:46:01;102272.84;;;15.62;57.02
60319;BME280;46163;52.306;5.634;2023-02-20T00:48:27;102261.28;;;15.62;56.84
60319;BME280;46163;52.306;5.634;2023-02-20T00:50:52;102264.16;;;15.60;56.91
60319;BME280;46163;52.306;5.634;2023-02-20T00:53:18;102257.13;;;15.59;56.87
60319;BME280;46163;52.306;5.634;2023-02-20T00:55:43;102258.16;;;15.58;56.77
60319;BME280;46163;52.306;5.634;2023-02-20T00:58:09;102251.16;;;15.57;56.82
60319;BME280;46163;52.306;5.634;2023-02-20T01:00:34;102237.72;;;15.57;56.85
60319;BME280;46163;52.306;5.634;2023-02-20T01:03:00;102234.41;;;15.55;56.85
60319;BME280;46163;52.306;5.634;2023-02-20T01:05:25;102224.69;;;15.54;56.57
60319;BME280;46163;52.306;5.634;2023-02-20T01:07:51;102229.22;;;15.53;56.76
60319;BME280;46163;52.306;5.634;2023-02-20T01:10:16;102217.06;;;15.51;56.68
60319;BME280;46163;52.306;5.634;2023-02-20T01:12:42;102205.28;;;15.52;56.66
60319;BME280;46163;52.306;5.634;2023-02-20T01:15:08;102192.91;;;15.51;56.76
60319;BME280;46163;52.306;5.634;2023-02-20T01:17:35;102184.22;;;15.49;56.61
60319;BME280;46163;52.306;5.634;2023-02-20T01:20:00;102192.28;;;15.49;56.66
60319;BME280;46163;52.306;5.634;2023-02-20T01:22:26;102175.56;;;15.47;56.73
60319;BME280;46163;52.306;5.634;2023-02-20T01:24:51;102182.97;;;15.45;56.65
60319;BME280;46163;52.306;5.634;2023-02-20T01:27:17;102182.13;;;15.44;56.60
60319;BME280;46163;52.306;5.634;2023-02-20T01:29:42;102184.00;;;15.44;56.83
60319;BME280;46163;52.306;5.634;2023-02-20T01:32:11;102181.53;;;15.42;56.79
60319;BME280;46163;52.306;5.634;2023-02-20T01:34:37;102175.31;;;15.42;56.55
60319;BME280;46163;52.306;5.634;2023-02-20T01:37:05;102178.00;;;15.42;56.49
60319;BME280;46163;52.306;5.634;2023-02-20T01:39:30;102188.94;;;15.40;56.53
60319;BME280;46163;52.306;5.634;2023-02-20T01:41:59;102190.81;;;15.40;56.51
60319;BME280;46163;52.306;5.634;2023-02-20T01:44:31;102183.13;;;15.37;56.63
60319;BME280;46163;52.306;5.634;2023-02-20T01:47:03;102192.00;;;15.37;56.58
60319;BME280;46163;52.306;5.634;2023-02-20T01:49:51;102186.84;;;15.36;56.70
60319;BME280;46163;52.306;5.634;2023-02-20T01:52:26;102185.19;;;15.35;56.60
60319;BME280;46163;52.306;5.634;2023-02-20T01:54:58;102172.81;;;15.34;56.54
60319;BME280;46163;52.306;5.634;2023-02-20T01:57:27;102165.59;;;15.34;56.48
60319;BME280;46163;52.306;5.634;2023-02-20T01:59:59;102162.28;;;15.32;56.65
60319;BME280;46163;52.306;5.634;2023-02-20T02:02:27;102163.13;;;15.33;56.56
60319;BME280;46163;52.306;5.634;2023-02-20T02:04:53;102153.41;;;15.32;56.58
60319;BME280;46163;52.306;5.634;2023-02-20T02:07:18;102148.25;;;15.30;56.57
60319;BME280;46163;52.306;5.634;2023-02-20T02:09:51;102145.75;;;15.28;56.51
60319;BME280;46163;52.306;5.634;2023-02-20T02:12:18;102141.25;;;15.29;56.62
60319;BME280;46163;52.306;5.634;2023-02-20T02:14:43;102129.03;;;15.26;56.47
60319;BME280;46163;52.306;5.634;2023-02-20T02:20:06;102135.44;;;15.25;56.52
60319;BME280;46163;52.306;5.634;2023-02-20T02:39:47;102120.13;;;15.19;56.18
60319;BME280;46163;52.306;5.634;2023-02-20T02:45:01;102115.78;;;15.18;56.32
60319;BME280;46163;52.306;5.634;2023-02-20T02:47:30;102117.66;;;15.18;56.18
60319;BME280;46163;52.306;5.634;2023-02-20T02:50:03;102111.47;;;15.17;56.17
60319;BME280;46163;52.306;5.634;2023-02-20T02:52:31;102109.81;;;15.16;56.20
60319;BME280;46163;52.306;5.634;2023-02-20T02:55:26;102111.88;;;15.14;56.37
60319;BME280;46163;52.306;5.634;2023-02-20T02:57:51;102095.59;;;15.16;56.33
60319;BME280;46163;52.306;5.634;2023-02-20T03:00:24;102098.25;;;15.16;56.16
60319;BME280;46163;52.306;5.634;2023-02-20T03:03:02;102091.25;;;15.15;56.14
60319;BME280;46163;52.306;5.634;2023-02-20T03:08:40;102078.88;;;15.14;56.27
60319;BME280;46163;52.306;5.634;2023-02-20T03:11:15;102066.47;;;15.06;56.25
60319;BME280;46163;52.306;5.634;2023-02-20T03:13:43;102082.59;;;15.13;56.10
60319;BME280;46163;52.306;5.634;2023-02-20T03:16:42;102090.63;;;15.13;56.04
60319;BME280;46163;52.306;5.634;2023-02-20T03:19:12;102085.44;;;15.11;56.11
60319;BME280;46163;52.306;5.634;2023-02-20T03:21:41;102079.09;;;15.12;56.17
60319;BME280;46163;52.306;5.634;2023-02-20T03:24:10;102074.72;;;15.11;56.14
60319;BME280;46163;52.306;5.634;2023-02-20T03:26:40;102079.25;;;15.11;56.02
60319;BME280;46163;52.306;5.634;2023-02-20T03:29:30;102078.44;;;15.10;56.23
60319;BME280;46163;52.306;5.634;2023-02-20T03:32:08;102068.13;;;15.07;56.21
60319;BME280;46163;52.306;5.634;2023-02-20T03:34:55;102066.06;;;15.09;56.10
60319;BME280;46163;52.306;5.634;2023-02-20T03:37:42;102072.25;;;15.10;56.08
60319;BME280;46163;52.306;5.634;2023-02-20T03:40:28;102073.06;;;15.10;56.06
60319;BME280;46163;52.306;5.634;2023-02-20T03:43:17;102071.41;;;15.09;55.85
60319;BME280;46163;52.306;5.634;2023-02-20T03:45:47;102070.59;;;15.09;55.96
60319;BME280;46163;52.306;5.634;2023-02-20T03:48:33;102068.72;;;15.09;56.00
60319;BME280;46163;52.306;5.634;2023-02-20T03:51:01;102068.94;;;15.08;55.96
60319;BME280;46163;52.306;5.634;2023-02-20T03:53:27;102067.28;;;15.07;55.85
60319;BME280;46163;52.306;5.634;2023-02-20T03:56:00;102061.94;;;15.07;55.98
60319;BME280;46163;52.306;5.634;2023-02-20T03:58:28;102054.91;;;15.06;55.99
60319;BME280;46163;52.306;5.634;2023-02-20T04:00:57;102061.94;;;15.07;56.03
60319;BME280;46163;52.306;5.634;2023-02-20T04:03:27;102052.84;;;15.08;55.89
60319;BME280;46163;52.306;5.634;2023-02-20T04:05:56;102048.53;;;15.07;55.92
60319;BME280;46163;52.306;5.634;2023-02-20T04:08:32;102039.66;;;15.06;55.77
60319;BME280;46163;52.306;5.634;2023-02-20T04:13:29;102040.69;;;15.05;55.93
60319;BME280;46163;52.306;5.634;2023-02-20T04:15:59;102045.84;;;15.07;55.86
60319;BME280;46163;52.306;5.634;2023-02-20T04:18:26;102029.75;;;15.07;55.95
60319;BME280;46163;52.306;5.634;2023-02-20T04:20:54;102042.97;;;15.08;55.80
60319;BME280;46163;52.306;5.634;2023-02-20T04:23:23;102041.72;;;15.11;55.80
60319;BME280;46163;52.306;5.634;2023-02-20T04:28:17;102040.09;;;15.16;55.74
60319;BME280;46163;52.306;5.634;2023-02-20T04:30:43;102021.94;;;15.18;55.60
60319;BME280;46163;52.306;5.634;2023-02-20T04:33:10;102014.53;;;15.27;55.71
60319;BME280;46163;52.306;5.634;2023-02-20T04:35:38;102022.41;;;15.35;55.26
60319;BME280;46163;52.306;5.634;2023-02-20T04:38:03;102019.31;;;15.45;55.13
60319;BME280;46163;52.306;5.634;2023-02-20T04:40:29;102016.66;;;15.51;54.84
60319;BME280;46163;52.306;5.634;2023-02-20T04:42:54;102020.19;;;15.59;55.00
60319;BME280;46163;52.306;5.634;2023-02-20T04:45:19;102023.72;;;15.66;54.73
60319;BME280;46163;52.306;5.634;2023-02-20T04:47:45;102020.84;;;15.74;54.69
60319;BME280;46163;52.306;5.634;2023-02-20T04:50:28;102032.19;;;15.82;54.41
60319;BME280;46163;52.306;5.634;2023-02-20T04:52:54;102017.53;;;15.92;54.27
60319;BME280;46163;52.306;5.634;2023-02-20T04:55:20;102016.28;;;16.01;54.23
60319;BME280;46163;52.306;5.634;2023-02-20T04:57:46;102012.34;;;16.10;53.98
60319;BME280;46163;52.306;5.634;2023-02-20T05:00:14;102026.41;;;16.19;53.67
60319;BME280;46163;52.306;5.634;2023-02-20T05:02:40;102017.28;;;16.26;53.58
60319;BME280;46163;52.306;5.634;2023-02-20T05:05:18;102029.47;;;16.35;53.24
60319;BME280;46163;52.306;5.634;2023-02-20T05:07:43;102014.16;;;16.43;53.36
60319;BME280;46163;52.306;5.634;2023-02-20T05:10:13;102025.69;;;16.50;53.02
60319;BME280;46163;52.306;5.634;2023-02-20T05:12:39;102012.47;;;16.55;52.96
60319;BME280;46163;52.306;5.634;2023-02-20T05:15:05;102015.34;;;16.60;52.70
60319;BME280;46163;52.306;5.634;2023-02-20T05:17:30;102018.22;;;16.65;52.63
60319;BME280;46163;52.306;5.634;2023-02-20T05:19:56;102009.34;;;16.71;52.65
60319;BME280;46163;52.306;5.634;2023-02-20T05:22:21;102003.53;;;16.74;52.35
60319;BME280;46163;52.306;5.634;2023-02-20T05:24:48;102009.09;;;16.79;52.49
60319;BME280;46163;52.306;5.634;2023-02-20T05:27:16;102008.66;;;16.82;52.63
60319;BME280;46163;52.306;5.634;2023-02-20T05:29:56;102007.22;;;16.86;52.50
60319;BME280;46163;52.306;5.634;2023-02-20T05:32:24;102008.03;;;16.87;52.36
60319;BME280;46163;52.306;5.634;2023-02-20T05:34:51;102007.38;;;16.91;52.28
60319;BME280;46163;52.306;5.634;2023-02-20T05:37:18;101999.91;;;16.93;52.27
60319;BME280;46163;52.306;5.634;2023-02-20T05:39:45;102014.81;;;16.96;52.22
60319;BME280;46163;52.306;5.634;2023-02-20T05:42:10;102000.94;;;16.99;52.26
60319;BME280;46163;52.306;5.634;2023-02-20T05:44:39;102010.44;;;17.02;52.27
60319;BME280;46163;52.306;5.634;2023-02-20T05:47:04;102011.06;;;17.04;52.08
60319;BME280;46163;52.306;5.634;2023-02-20T05:49:33;102002.34;;;17.02;52.05
60319;BME280;46163;52.306;5.634;2023-02-20T05:52:00;102015.78;;;17.08;52.17
60319;BME280;46163;52.306;5.634;2023-02-20T05:54:26;102016.19;;;17.12;52.18
60319;BME280;46163;52.306;5.634;2023-02-20T05:56:52;102014.94;;;17.14;52.35
60319;BME280;46163;52.306;5.634;2023-02-20T05:59:22;102018.00;;;17.18;52.06
60319;BME280;46163;52.306;5.634;2023-02-20T06:01:48;102013.84;;;17.22;52.03
60319;BME280;46163;52.306;5.634;2023-02-20T06:04:19;102015.88;;;17.27;51.95
60319;BME280;46163;52.306;5.634;2023-02-20T06:06:45;102004.47;;;17.31;51.98
60319;BME280;46163;52.306;5.634;2023-02-20T06:09:11;102009.19;;;17.36;51.99
60319;BME280;46163;52.306;5.634;2023-02-20T06:11:38;102012.91;;;17.41;52.04
60319;BME280;46163;52.306;5.634;2023-02-20T06:14:05;102013.09;;;17.46;51.92
60319;BME280;46163;52.306;5.634;2023-02-20T06:16:31;102006.81;;;17.52;52.13
60319;BME280;46163;52.306;5.634;2023-02-20T06:18:57;102000.78;;;17.57;51.81
60319;BME280;46163;52.306;5.634;2023-02-20T06:21:25;101999.50;;;17.60;51.88
60319;BME280;46163;52.306;5.634;2023-02-20T06:23:52;101997.81;;;17.65;51.84
60319;BME280;46163;52.306;5.634;2023-02-20T06:26:18;101997.38;;;17.68;51.84
60319;BME280;46163;52.306;5.634;2023-02-20T06:28:44;101987.00;;;17.72;51.96
60319;BME280;46163;52.306;5.634;2023-02-20T06:31:10;101987.41;;;17.75;51.79
60319;BME280;46163;52.306;5.634;2023-02-20T06:33:36;101978.88;;;17.78;51.66
60319;BME280;46163;52.306;5.634;2023-02-20T06:36:03;101977.63;;;17.81;51.54
60319;BME280;46163;52.306;5.634;2023-02-20T06:38:28;101963.19;;;17.75;51.23
60319;BME280;46163;52.306;5.634;2023-02-20T06:40:54;101963.78;;;17.77;51.28
60319;BME280;46163;52.306;5.634;2023-02-20T06:43:20;101979.06;;;17.84;51.21
60319;BME280;46163;52.306;5.634;2023-02-20T06:45:46;101986.09;;;17.85;51.12
60319;BME280;46163;52.306;5.634;2023-02-20T06:48:12;101986.91;;;17.85;51.03
60319;BME280;46163;52.306;5.634;2023-02-20T06:50:41;101984.22;;;17.85;51.23
60319;BME280;46163;52.306;5.634;2023-02-20T06:53:07;101984.00;;;17.87;51.00
60319;BME280;46163;52.306;5.634;2023-02-20T06:55:33;101994.53;;;17.88;50.96
60319;BME280;46163;52.306;5.634;2023-02-20T06:57:59;101992.88;;;17.87;51.13
60319;BME280;46163;52.306;5.634;2023-02-20T07:00:25;102000.16;;;17.87;50.86
60319;BME280;46163;52.306;5.634;2023-02-20T07:02:51;102001.78;;;17.88;50.74
60319;BME280;46163;52.306;5.634;2023-02-20T07:05:16;102005.53;;;17.87;50.66
60319;BME280;46163;52.306;5.634;2023-02-20T07:07:44;102005.53;;;17.87;50.37
60319;BME280;46163;52.306;5.634;2023-02-20T07:10:10;102004.72;;;17.86;50.80
60319;BME280;46163;52.306;5.634;2023-02-20T07:12:36;102000.38;;;17.85;50.86
60319;BME280;46163;52.306;5.634;2023-02-20T07:15:04;102002.25;;;17.85;50.97
60319;BME280;46163;52.306;5.634;2023-02-20T07:17:30;102010.09;;;17.86;51.32
60319;BME280;46163;52.306;5.634;2023-02-20T07:19:55;102008.44;;;17.85;51.49
60319;BME280;46163;52.306;5.634;2023-02-20T07:22:21;102018.41;;;17.85;50.89
60319;BME280;46163;52.306;5.634;2023-02-20T07:24:51;102014.44;;;17.87;51.09
60319;BME280;46163;52.306;5.634;2023-02-20T07:27:19;102017.13;;;17.87;51.51
60319;BME280;46163;52.306;5.634;2023-02-20T07:29:47;102020.63;;;17.88;51.44
60319;BME280;46163;52.306;5.634;2023-02-20T07:32:14;102028.72;;;17.88;51.80
60319;BME280;46163;52.306;5.634;2023-02-20T07:34:40;102019.59;;;17.89;51.66
60319;BME280;46163;52.306;5.634;2023-02-20T07:37:05;102034.50;;;17.91;51.77
60319;BME280;46163;52.306;5.634;2023-02-20T07:39:31;102028.06;;;17.92;51.99
60319;BME280;46163;52.306;5.634;2023-02-20T07:41:57;102030.78;;;17.92;51.81
60319;BME280;46163;52.306;5.634;2023-02-20T07:44:22;102036.16;;;17.92;51.83
60319;BME280;46163;52.306;5.634;2023-02-20T07:46:48;102034.06;;;17.94;51.71
60319;BME280;46163;52.306;5.634;2023-02-20T07:49:13;102038.63;;;17.94;51.70
60319;BME280;46163;52.306;5.634;2023-02-20T07:51:39;102041.09;;;17.95;51.93
60319;BME280;46163;52.306;5.634;2023-02-20T07:54:04;102042.72;;;17.96;51.78
60319;BME280;46163;52.306;5.634;2023-02-20T07:56:30;102045.19;;;17.98;51.77
60319;BME280;46163;52.306;5.634;2023-02-20T07:58:56;102036.31;;;17.97;51.71
60319;BME280;46163;52.306;5.634;2023-02-20T08:01:21;102032.59;;;17.98;51.72
60319;BME280;46163;52.306;5.634;2023-02-20T08:03:47;102021.59;;;18.00;52.27
60319;BME280;46163;52.306;5.634;2023-02-20T08:06:16;102018.44;;;18.03;53.01
60319;BME280;46163;52.306;5.634;2023-02-20T08:08:42;102016.56;;;18.03;52.54
60319;BME280;46163;52.306;5.634;2023-02-20T08:11:07;102008.50;;;18.03;52.11
60319;BME280;46163;52.306;5.634;2023-02-20T08:13:33;102008.03;;;18.06;52.45
60319;BME280;46163;52.306;5.634;2023-02-20T08:15:58;102011.34;;;18.08;52.38
60319;BME280;46163;52.306;5.634;2023-02-20T08:18:24;102011.94;;;18.11;52.37
60319;BME280;46163;52.306;5.634;2023-02-20T08:20:49;102010.31;;;18.10;52.35
60319;BME280;46163;52.306;5.634;2023-02-20T08:23:19;102007.38;;;18.11;52.37
60319;BME280;46163;52.306;5.634;2023-02-20T08:25:45;102010.06;;;18.11;52.37
60319;BME280;46163;52.306;5.634;2023-02-20T08:28:10;102016.88;;;18.14;52.51
60319;BME280;46163;52.306;5.634;2023-02-20T08:30:36;101995.34;;;18.14;52.39
60319;BME280;46163;52.306;5.634;2023-02-20T08:33:02;102006.09;;;18.14;52.22
60319;BME280;46163;52.306;5.634;2023-02-20T08:35:33;101983.78;;;18.06;52.26
60319;BME280;46163;52.306;5.634;2023-02-20T08:38:00;101998.66;;;18.16;52.06
60319;BME280;46163;52.306;5.634;2023-02-20T08:40:26;101993.91;;;18.11;51.89
60319;BME280;46163;52.306;5.634;2023-02-20T08:42:52;101999.66;;;18.15;51.83
60319;BME280;46163;52.306;5.634;2023-02-20T08:45:17;102005.06;;;18.15;51.63
60319;BME280;46163;52.306;5.634;2023-02-20T08:47:43;101984.56;;;18.14;51.69
60319;BME280;46163;52.306;5.634;2023-02-20T08:50:08;102001.13;;;18.17;51.85
60319;BME280;46163;52.306;5.634;2023-02-20T08:52:34;101991.97;;;18.18;51.73
60319;BME280;46163;52.306;5.634;2023-02-20T08:55:00;101994.44;;;18.20;51.86
60319;BME280;46163;52.306;5.634;2023-02-20T08:57:25;101990.94;;;18.19;52.14
60319;BME280;46163;52.306;5.634;2023-02-20T08:59:51;102006.88;;;18.21;52.26
60319;BME280;46163;52.306;5.634;2023-02-20T09:02:19;102011.44;;;18.20;52.39
60319;BME280;46163;52.306;5.634;2023-02-20T09:04:45;101998.19;;;18.19;52.24
60319;BME280;46163;52.306;5.634;2023-02-20T09:07:11;102011.44;;;18.20;52.00
60319;BME280;46163;52.306;5.634;2023-02-20T09:09:37;102008.97;;;18.19;51.85
60319;BME280;46163;52.306;5.634;2023-02-20T09:12:03;102009.34;;;18.22;52.01
60319;BME280;46163;52.306;5.634;2023-02-20T09:14:29;102002.91;;;18.23;52.17
60319;BME280;46163;52.306;5.634;2023-02-20T09:16:54;102003.94;;;18.22;52.22
60319;BME280;46163;52.306;5.634;2023-02-20T09:19:20;102005.59;;;18.23;52.05
60319;BME280;46163;52.306;5.634;2023-02-20T09:21:48;102001.25;;;18.22;52.01
60319;BME280;46163;52.306;5.634;2023-02-20T09:24:13;102001.88;;;18.24;52.17
60319;BME280;46163;52.306;5.634;2023-02-20T09:26:39;101999.19;;;18.24;52.04
60319;BME280;46163;52.306;5.634;2023-02-20T09:29:05;102000.00;;;18.25;52.28
60319;BME280;46163;52.306;5.634;2023-02-20T09:31:30;101989.22;;;18.25;51.99
60319;BME280;46163;52.306;5.634;2023-02-20T09:33:56;101993.56;;;18.26;51.99
60319;BME280;46163;52.306;5.634;2023-02-20T09:36:21;101990.66;;;18.27;52.37
60319;BME280;46163;52.306;5.634;2023-02-20T09:38:47;101995.22;;;18.27;52.29
60319;BME280;46163;52.306;5.634;2023-02-20T09:41:32;102008.69;;;18.27;52.27
60319;BME280;46163;52.306;5.634;2023-02-20T09:50:40;102013.03;;;18.28;52.32
60319;BME280;46163;52.306;5.634;2023-02-20T09:55:42;102026.50;;;18.28;52.08
60319;BME280;46163;52.306;5.634;2023-02-20T09:58:20;102025.44;;;18.29;52.31
60319;BME280;46163;52.306;5.634;2023-02-20T10:00:46;102025.44;;;18.29;52.22
60319;BME280;46163;52.306;5.634;2023-02-20T10:03:21;102020.88;;;18.29;52.07
60319;BME280;46163;52.306;5.634;2023-02-20T10:05:49;102016.31;;;18.30;52.09
60319;BME280;46163;52.306;5.634;2023-02-20T10:08:19;102012.78;;;18.29;52.07
60319;BME280;46163;52.306;5.634;2023-02-20T10:10:49;102007.16;;;18.31;52.23
60319;BME280;46163;52.306;5.634;2023-02-20T10:13:36;102011.75;;;18.30;52.03
60319;BME280;46163;52.306;5.634;2023-02-20T10:16:25;102006.34;;;18.30;52.17
60319;BME280;46163;52.306;5.634;2023-02-20T10:26:48;101991.00;;;18.31;52.23
60319;BME280;46163;52.306;5.634;2023-02-20T10:29:25;102004.47;;;18.31;52.29
60319;BME280;46163;52.306;5.634;2023-02-20T10:31:59;101980.22;;;18.31;52.28
60319;BME280;46163;52.306;5.634;2023-02-20T10:34:48;101958.66;;;18.31;52.09
60319;BME280;46163;52.306;5.634;2023-02-20T10:37:19;101970.50;;;18.30;52.03
60319;BME280;46163;52.306;5.634;2023-02-20T10:40:22;101979.03;;;18.27;52.11
60319;BME280;46163;52.306;5.634;2023-02-20T10:45:46;101963.31;;;18.24;51.96
60319;BME280;46163;52.306;5.634;2023-02-20T10:48:13;101957.72;;;18.25;51.92
60319;BME280;46163;52.306;5.634;2023-02-20T10:50:49;101968.50;;;18.25;51.77
60319;BME280;46163;52.306;5.634;2023-02-20T10:53:46;101980.31;;;18.24;51.56
60319;BME280;46163;52.306;5.634;2023-02-20T10:56:38;101991.28;;;18.23;51.58
60319;BME280;46163;52.306;5.634;2023-02-20T10:59:22;101979.69;;;18.22;51.42
60319;BME280;46163;52.306;5.634;2023-02-20T11:01:56;101962.13;;;18.20;51.56
60319;BME280;46163;52.306;5.634;2023-02-20T11:04:35;101985.78;;;18.18;51.31
60319;BME280;46163;52.306;5.634;2023-02-20T11:07:06;101991.16;;;18.18;51.50
60319;BME280;46163;52.306;5.634;2023-02-20T11:09:33;101998.41;;;18.17;51.35
60319;BME280;46163;52.306;5.634;2023-02-20T11:11:59;101992.22;;;18.17;51.40
60319;BME280;46163;52.306;5.634;2023-02-20T11:14:32;102000.28;;;18.17;51.71
60319;BME280;46163;52.306;5.634;2023-02-20T11:17:08;102019.97;;;18.17;52.23
60319;BME280;46163;52.306;5.634;2023-02-20T11:22:03;102018.94;;;18.18;52.36
60319;BME280;46163;52.306;5.634;2023-02-20T11:29:38;102011.66;;;18.19;52.33
60319;BME280;46163;52.306;5.634;2023-02-20T11:32:26;102013.91;;;18.22;51.96
60319;BME280;46163;52.306;5.634;2023-02-20T11:35:24;102023.03;;;18.21;52.36
60319;BME280;46163;52.306;5.634;2023-02-20T11:40:42;102011.66;;;18.19;52.14
60319;BME280;46163;52.306;5.634;2023-02-20T11:43:10;102004.63;;;18.18;52.15
60319;BME280;46163;52.306;5.634;2023-02-20T11:45:40;101990.13;;;18.19;52.61
60319;BME280;46163;52.306;5.634;2023-02-20T11:48:15;102006.88;;;18.21;52.67
60319;BME280;46163;52.306;5.634;2023-02-20T11:56:15;101982.03;;;18.19;52.79
60319;BME280;46163;52.306;5.634;2023-02-20T11:58:41;101981.44;;;18.17;52.96
60319;BME280;46163;52.306;5.634;2023-02-20T12:01:27;101987.66;;;18.17;52.97
60319;BME280;46163;52.306;5.634;2023-02-20T12:03:55;101996.16;;;18.14;52.70
60319;BME280;46163;52.306;5.634;2023-02-20T12:09:06;101999.91;;;18.13;52.83
60319;BME280;46163;52.306;5.634;2023-02-20T12:11:36;101994.72;;;18.12;52.84
60319;BME280;46163;52.306;5.634;2023-02-20T12:14:01;101988.53;;;18.11;52.66
60319;BME280;46163;52.306;5.634;2023-02-20T12:19:39;101974.69;;;18.07;52.81
60319;BME280;46163;52.306;5.634;2023-02-20T12:22:32;101978.22;;;18.08;53.01
60319;BME280;46163;52.306;5.634;2023-02-20T12:25:20;101976.34;;;18.08;53.03
60319;BME280;46163;52.306;5.634;2023-02-20T12:41:39;101975.72;;;18.06;52.91
60319;BME280;46163;52.306;5.634;2023-02-20T13:00:59;101958.00;;;18.17;52.96
60319;BME280;46163;52.306;5.634;2023-02-20T13:06:31;101929.31;;;18.23;53.28
60319;BME280;46163;52.306;5.634;2023-02-20T13:09:04;101911.91;;;18.25;52.92
60319;BME280;46163;52.306;5.634;2023-02-20T13:11:39;101932.19;;;18.28;52.80
60319;BME280;46163;52.306;5.634;2023-02-20T13:21:59;101951.41;;;18.31;52.73
60319;BME280;46163;52.306;5.634;2023-02-20T13:24:30;101942.28;;;18.32;52.65
60319;BME280;46163;52.306;5.634;2023-02-20T13:26:59;101940.41;;;18.33;52.34
60319;BME280;46163;52.306;5.634;2023-02-20T13:29:32;101916.59;;;18.30;52.71
60319;BME280;46163;52.306;5.634;2023-02-20T13:32:00;101925.50;;;18.30;52.59
60319;BME280;46163;52.306;5.634;2023-02-20T13:34:36;101922.81;;;18.30;52.61
60319;BME280;46163;52.306;5.634;2023-02-20T13:37:04;101926.78;;;18.28;52.79
60319;BME280;46163;52.306;5.634;2023-02-20T13:44:42;101911.53;;;18.22;52.71
60319;BME280;46163;52.306;5.634;2023-02-20T13:54:58;101916.78;;;18.17;52.88
60319;BME280;46163;52.306;5.634;2023-02-20T13:57:29;101911.59;;;18.15;53.18
60319;BME280;46163;52.306;5.634;2023-02-20T13:59:59;101908.06;;;18.15;53.30
60319;BME280;46163;52.306;5.634;2023-02-20T14:02:25;101907.88;;;18.16;53.32
60319;BME280;46163;52.306;5.634;2023-02-20T14:05:04;101904.94;;;18.18;53.44
60319;BME280;46163;52.306;5.634;2023-02-20T14:07:31;101902.84;;;18.20;53.14
60319;BME280;46163;52.306;5.634;2023-02-20T14:10:05;101907.19;;;18.21;53.17
60319;BME280;46163;52.306;5.634;2023-02-20T14:12:33;101907.19;;;18.21;52.73
60319;BME280;46163;52.306;5.634;2023-02-20T14:15:02;101904.47;;;18.21;52.68
60319;BME280;46163;52.306;5.634;2023-02-20T14:17:28;101910.69;;;18.21;52.56
60319;BME280;46163;52.306;5.634;2023-02-20T14:19:59;101902.84;;;18.20;52.57
60319;BME280;46163;52.306;5.634;2023-02-20T14:22:31;101898.28;;;18.20;52.85
60319;BME280;46163;52.306;5.634;2023-02-20T14:27:36;101898.63;;;18.24;53.31
60319;BME280;46163;52.306;5.634;2023-02-20T14:30:17;101895.50;;;18.27;53.19
60319;BME280;46163;52.306;5.634;2023-02-20T14:32:46;101888.25;;;18.27;53.19
60319;BME280;46163;52.306;5.634;2023-02-20T14:35:33;101899.84;;;18.28;53.05
60319;BME280;46163;52.306;5.634;2023-02-20T14:38:14;101892.34;;;18.30;53.01
60319;BME280;46163;52.306;5.634;2023-02-20T14:40:43;101885.91;;;18.31;52.94
60319;BME280;46163;52.306;5.634;2023-02-20T14:43:17;101876.19;;;18.30;52.79
60319;BME280;46163;52.306;5.634;2023-02-20T14:45:45;101884.84;;;18.32;52.66
60319;BME280;46163;52.306;5.634;2023-02-20T14:48:27;101895.44;;;18.33;52.36
60319;BME280;46163;52.306;5.634;2023-02-20T14:51:16;101890.88;;;18.34;52.25
60319;BME280;46163;52.306;5.634;2023-02-20T14:53:43;101895.44;;;18.33;52.11
60319;BME280;46163;52.306;5.634;2023-02-20T14:56:14;101876.19;;;18.30;52.26
60319;BME280;46163;52.306;5.634;2023-02-20T14:58:40;101890.47;;;18.30;52.30
60319;BME280;46163;52.306;5.634;2023-02-20T15:01:17;101889.66;;;18.30;52.25
60319;BME280;46163;52.306;5.634;2023-02-20T15:06:24;101873.38;;;18.25;52.32
60319;BME280;46163;52.306;5.634;2023-02-20T15:08:56;101875.81;;;18.26;52.18
60319;BME280;46163;52.306;5.634;2023-02-20T15:11:22;101877.94;;;18.24;52.47
60319;BME280;46163;52.306;5.634;2023-02-20T15:13:50;101875.44;;;18.23;52.24
60319;BME280;46163;52.306;5.634;2023-02-20T15:16:30;101863.03;;;18.22;52.35